createdAt,value
2022-10-30T00:02:52.276Z,35.10
2022-10-30T00:05:55.413Z,31.80
2022-10-30T00:08:58.276Z,31.60
2022-10-30T00:12:01.130Z,35.40
2022-10-30T00:15:04.586Z,37.40
2022-10-30T00:18:07.516Z,35.30
2022-10-30T00:21:13.100Z,37.00
2022-10-30T00:24:16.825Z,38.60
2022-10-30T00:27:19.675Z,39.30
2022-10-30T00:30:23.342Z,35.20
2022-10-30T00:33:26.422Z,30.40
2022-10-30T00:36:29.270Z,31.40
2022-10-30T00:39:32.179Z,33.30
2022-10-30T00:42:34.948Z,35.70
2022-10-30T00:45:40.205Z,36.70
2022-10-30T00:48:46.133Z,38.70
2022-10-30T00:51:53.608Z,35.00
2022-10-30T00:54:58.517Z,34.70
2022-10-30T00:58:07.768Z,36.20
2022-10-30T01:01:19.702Z,36.60
2022-10-30T01:04:28.938Z,39.60
2022-10-30T01:07:33.230Z,37.80
2022-10-30T01:10:36.115Z,36.40
2022-10-30T01:13:42.004Z,36.50
2022-10-30T01:16:54.984Z,29.60
2022-10-30T01:20:24.219Z,35.70
2022-10-30T01:23:46.435Z,37.20
2022-10-30T01:27:07.242Z,35.90
2022-10-30T01:30:29.034Z,34.20
2022-10-30T01:33:50.646Z,28.80
2022-10-30T01:37:50.801Z,29.30
2022-10-30T01:40:53.654Z,33.60
2022-10-30T01:44:01.736Z,35.60
2022-10-30T01:47:20.729Z,35.70
2022-10-30T01:50:40.964Z,38.70
2022-10-30T01:53:56.617Z,34.70
2022-10-30T01:57:35.446Z,35.30
2022-10-30T02:00:42.270Z,35.50
2022-10-30T02:03:46.523Z,37.00
2022-10-30T02:06:49.895Z,42.10
2022-10-30T02:09:54.791Z,41.50
2022-10-30T02:12:57.827Z,42.60
2022-10-30T02:16:01.097Z,40.80
2022-10-30T02:19:04.050Z,43.90
2022-10-30T02:22:07.174Z,42.40
2022-10-30T02:25:10.255Z,40.50
2022-10-30T02:28:13.179Z,48.00
2022-10-30T02:31:16.077Z,48.70
2022-10-30T02:34:18.956Z,43.70
2022-10-30T02:37:21.981Z,44.20
2022-10-30T02:40:24.817Z,45.00
2022-10-30T02:43:27.751Z,43.80
2022-10-30T02:46:30.729Z,44.90
2022-10-30T02:49:33.692Z,43.50
2022-10-30T02:52:36.727Z,44.90
2022-10-30T02:55:39.603Z,46.40
2022-10-30T02:58:43.282Z,43.10
2022-10-30T03:01:46.346Z,41.20
2022-10-30T03:04:49.294Z,42.70
2022-10-30T03:07:52.234Z,38.30
2022-10-30T03:11:09.687Z,41.80
2022-10-30T03:14:12.569Z,41.30
2022-10-30T03:17:15.369Z,46.70
2022-10-30T03:20:18.992Z,46.80
2022-10-30T03:23:21.834Z,46.60
2022-10-30T03:26:24.965Z,46.80
2022-10-30T03:29:31.130Z,51.00
2022-10-30T03:32:34.020Z,51.80
2022-10-30T03:35:37.079Z,51.60
2022-10-30T03:38:40.334Z,53.10
2022-10-30T03:41:44.802Z,50.20
2022-10-30T03:44:48.343Z,49.60
2022-10-30T03:47:51.215Z,47.80
2022-10-30T03:50:54.971Z,43.90
2022-10-30T03:53:58.069Z,46.40
2022-10-30T03:57:01.841Z,48.90
2022-10-30T04:00:09.160Z,50.40
2022-10-30T04:03:19.520Z,49.90
2022-10-30T04:06:22.484Z,46.50
2022-10-30T04:09:25.485Z,45.00
2022-10-30T04:12:29.381Z,47.20
2022-10-30T04:15:33.959Z,46.00
2022-10-30T04:18:36.973Z,44.50
2022-10-30T04:21:39.890Z,45.00
2022-10-30T04:24:44.816Z,49.90
2022-10-30T04:27:49.368Z,45.50
2022-10-30T04:30:53.211Z,47.30
2022-10-30T04:33:56.075Z,51.40
2022-10-30T04:36:58.994Z,53.30
2022-10-30T04:40:01.873Z,51.80
2022-10-30T04:43:10.314Z,56.60
2022-10-30T04:46:13.960Z,55.80
2022-10-30T04:49:16.892Z,55.60
2022-10-30T04:52:19.843Z,53.30
2022-10-30T04:55:22.802Z,50.70
2022-10-30T04:58:25.972Z,49.90
2022-10-30T05:01:36.687Z,53.60
2022-10-30T05:04:39.812Z,55.00
2022-10-30T05:07:43.357Z,50.70
2022-10-30T05:10:46.237Z,49.20
2022-10-30T05:13:49.517Z,52.30
2022-10-30T05:16:52.771Z,53.10
2022-10-30T05:19:56.771Z,51.30
2022-10-30T05:23:00.225Z,48.60
2022-10-30T05:26:03.352Z,60.20
2022-10-30T05:29:06.435Z,54.70
2022-10-30T05:32:09.589Z,49.30
2022-10-30T05:35:24.577Z,49.40
2022-10-30T05:38:28.271Z,49.20
2022-10-30T05:41:31.338Z,46.40
2022-10-30T05:44:55.056Z,44.90
2022-10-30T05:47:59.449Z,43.80
2022-10-30T05:51:06.672Z,45.00
2022-10-30T05:54:09.945Z,41.70
2022-10-30T05:57:14.787Z,46.00
2022-10-30T06:00:18.077Z,45.30
2022-10-30T06:03:20.995Z,56.40
2022-10-30T06:06:24.011Z,51.10
2022-10-30T06:09:27.181Z,43.40
2022-10-30T06:12:56.913Z,43.50
2022-10-30T06:16:24.071Z,42.40
2022-10-30T06:19:48.445Z,39.10
2022-10-30T06:23:09.999Z,40.70
2022-10-30T06:26:22.214Z,41.30
2022-10-30T06:29:30.469Z,56.50
2022-10-30T06:32:33.294Z,45.40
2022-10-30T06:35:36.267Z,43.00
2022-10-30T06:38:39.308Z,42.40
2022-10-30T06:41:43.839Z,45.80
2022-10-30T06:45:16.542Z,43.20
2022-10-30T06:48:19.996Z,40.70
2022-10-30T06:51:27.188Z,40.50
2022-10-30T06:54:30.432Z,45.90
2022-10-30T06:57:39.318Z,46.30
2022-10-30T07:01:02.194Z,44.20
2022-10-30T07:04:17.912Z,45.90
2022-10-30T07:07:20.900Z,40.20
2022-10-30T07:10:23.949Z,37.20
2022-10-30T07:13:43.934Z,43.60
2022-10-30T07:17:09.973Z,36.70
2022-10-30T07:20:13.487Z,40.20
2022-10-30T07:23:17.070Z,38.50
2022-10-30T07:26:19.961Z,35.80
2022-10-30T07:29:23.199Z,38.80
2022-10-30T07:32:46.287Z,35.80
2022-10-30T07:35:56.579Z,34.90
2022-10-30T07:39:25.606Z,37.50
2022-10-30T07:42:37.738Z,35.50
2022-10-30T07:46:09.762Z,37.20
2022-10-30T07:49:32.549Z,40.30
2022-10-30T07:52:41.431Z,38.40
2022-10-30T07:55:44.970Z,36.80
2022-10-30T07:58:50.672Z,32.40
2022-10-30T08:02:12.601Z,32.20
2022-10-30T08:05:34.955Z,35.20
2022-10-30T08:08:46.168Z,32.70
2022-10-30T08:12:18.220Z,36.60
2022-10-30T08:15:21.277Z,37.30
2022-10-30T08:18:25.620Z,35.10
2022-10-30T08:21:28.790Z,36.20
2022-10-30T08:24:36.161Z,36.00
2022-10-30T08:27:39.195Z,35.60
2022-10-30T08:30:42.292Z,35.10
2022-10-30T08:33:47.398Z,34.10
2022-10-30T08:37:08.172Z,35.30
2022-10-30T08:40:11.792Z,35.90
2022-10-30T08:43:50.091Z,35.40
2022-10-30T08:46:53.656Z,38.60
2022-10-30T08:49:56.652Z,40.40
2022-10-30T08:53:04.388Z,34.30
2022-10-30T08:56:07.691Z,33.00
2022-10-30T08:59:21.533Z,36.40
2022-10-30T09:02:25.488Z,37.80
2022-10-30T09:09:06.979Z,29.60
2022-10-30T09:12:18.533Z,29.90
2022-10-30T09:15:22.921Z,34.80
2022-10-30T09:18:30.591Z,32.10
2022-10-30T09:21:33.676Z,33.30
2022-10-30T09:24:37.467Z,32.60
2022-10-30T09:27:58.857Z,32.50
2022-10-30T09:31:04.089Z,31.40
2022-10-30T09:34:07.883Z,35.70
2022-10-30T09:37:19.607Z,32.80
2022-10-30T09:40:31.756Z,33.00
2022-10-30T09:44:02.506Z,31.50
2022-10-30T09:47:27.017Z,28.90
2022-10-30T09:50:39.886Z,29.20
2022-10-30T09:53:58.257Z,28.60
2022-10-30T09:57:20.185Z,27.30
2022-10-30T10:00:30.964Z,28.20
2022-10-30T10:04:02.573Z,28.70
2022-10-30T10:07:36.897Z,26.80
2022-10-30T10:10:53.987Z,29.50
2022-10-30T10:14:10.786Z,24.90
2022-10-30T10:17:30.583Z,22.00
2022-10-30T10:20:46.998Z,22.30
2022-10-30T10:23:52.473Z,24.60
2022-10-30T10:27:16.563Z,23.70
2022-10-30T10:30:21.417Z,31.50
2022-10-30T10:33:30.837Z,23.00
2022-10-30T10:37:21.809Z,29.20
2022-10-30T10:40:34.741Z,30.00
2022-10-30T10:44:00.256Z,25.70
2022-10-30T10:47:37.691Z,26.90
2022-10-30T10:50:48.841Z,27.20
2022-10-30T10:53:59.929Z,29.30
2022-10-30T10:57:06.519Z,26.70
2022-10-30T11:00:18.429Z,30.30
2022-10-30T11:03:28.041Z,28.70
2022-10-30T11:06:38.461Z,30.30
2022-10-30T11:09:42.585Z,32.40
2022-10-30T11:12:45.840Z,31.40
2022-10-30T11:16:21.971Z,29.40
2022-10-30T11:19:25.553Z,30.10
2022-10-30T11:22:40.113Z,29.90
2022-10-30T11:25:42.993Z,27.40
2022-10-30T11:28:52.784Z,27.80
2022-10-30T11:32:04.058Z,23.50
2022-10-30T11:35:07.460Z,22.10
2022-10-30T11:38:19.388Z,25.30
2022-10-30T11:41:22.629Z,25.50
2022-10-30T11:44:30.766Z,22.20
2022-10-30T11:47:38.487Z,22.00
2022-10-30T11:50:47.974Z,27.40
2022-10-30T11:53:50.986Z,19.00
2022-10-30T11:56:54.881Z,17.00
2022-10-30T12:00:04.673Z,19.30
2022-10-30T12:03:30.387Z,21.70
2022-10-30T12:06:33.248Z,18.60
2022-10-30T12:09:44.872Z,21.40
2022-10-30T12:12:50.787Z,20.00
2022-10-30T12:16:07.897Z,17.60
2022-10-30T12:19:15.472Z,18.20
2022-10-30T12:22:28.101Z,16.60
2022-10-30T12:25:32.260Z,15.80
2022-10-30T12:28:36.091Z,19.70
2022-10-30T12:31:47.901Z,18.50
2022-10-30T12:35:00.309Z,17.70
2022-10-30T12:38:09.825Z,17.10
2022-10-30T12:41:23.786Z,16.80
2022-10-30T12:44:32.373Z,16.80
2022-10-30T12:47:49.699Z,21.50
2022-10-30T12:51:06.554Z,18.10
2022-10-30T12:54:29.882Z,18.70
2022-10-30T12:58:16.112Z,18.80
2022-10-30T13:01:35.779Z,19.20
2022-10-30T13:04:46.158Z,18.50
2022-10-30T13:07:58.512Z,14.80
2022-10-30T13:11:25.600Z,12.70
2022-10-30T13:14:38.730Z,13.60
2022-10-30T13:17:41.638Z,14.90
2022-10-30T13:21:01.808Z,18.20
2022-10-30T13:24:26.450Z,16.20
2022-10-30T13:27:41.928Z,14.10
2022-10-30T13:31:01.648Z,17.10
2022-10-30T13:34:41.850Z,14.30
2022-10-30T13:38:02.442Z,18.70
2022-10-30T13:41:52.994Z,14.20
2022-10-30T13:45:22.043Z,13.30
2022-10-30T13:48:52.743Z,15.20
2022-10-30T13:52:06.130Z,14.30
2022-10-30T13:55:24.537Z,16.50
2022-10-30T13:58:42.354Z,17.80
2022-10-30T14:02:00.600Z,13.80
2022-10-30T14:05:18.630Z,14.10
2022-10-30T14:08:27.636Z,11.70
2022-10-30T14:11:30.606Z,16.80
2022-10-30T14:14:44.460Z,18.00
2022-10-30T14:18:12.001Z,15.30
2022-10-30T14:21:39.209Z,14.90
2022-10-30T14:24:45.126Z,17.90
2022-10-30T14:27:56.596Z,17.00
2022-10-30T14:31:05.461Z,18.90
2022-10-30T14:34:41.676Z,20.90
2022-10-30T14:37:44.472Z,23.10
2022-10-30T14:40:53.294Z,18.00
2022-10-30T14:44:06.419Z,18.70
2022-10-30T14:47:21.381Z,19.10
2022-10-30T14:50:27.051Z,18.40
2022-10-30T14:53:42.402Z,22.30
2022-10-30T14:56:51.238Z,18.70
2022-10-30T15:00:34.977Z,21.10
2022-10-30T15:04:04.549Z,24.40
2022-10-30T15:07:26.677Z,25.80
2022-10-30T15:10:35.283Z,25.90
2022-10-30T15:13:38.177Z,21.90
2022-10-30T15:16:41.809Z,22.20
2022-10-30T15:19:44.959Z,23.70
2022-10-30T15:22:52.924Z,24.00
2022-10-30T15:26:00.773Z,26.50
2022-10-30T15:29:07.113Z,28.00
2022-10-30T15:32:21.462Z,31.20
2022-10-30T15:35:26.983Z,30.40
2022-10-30T15:38:30.030Z,31.10
2022-10-30T15:41:38.714Z,27.60
2022-10-30T15:44:44.360Z,35.10
2022-10-30T15:48:20.662Z,36.30
2022-10-30T15:51:24.807Z,33.20
2022-10-30T15:54:29.302Z,36.90
2022-10-30T16:01:01.551Z,24.40
2022-10-30T16:04:13.616Z,27.10
2022-10-30T16:07:22.947Z,31.20
2022-10-30T16:10:35.823Z,28.30
2022-10-30T16:13:38.846Z,30.00
2022-10-30T16:16:44.267Z,32.70
2022-10-30T16:19:51.736Z,35.10
2022-10-30T16:22:54.677Z,33.30
2022-10-30T16:25:59.418Z,43.00
2022-10-30T16:29:14.533Z,40.60
2022-10-30T16:32:24.551Z,42.50
2022-10-30T16:35:29.213Z,38.00
2022-10-30T16:38:39.868Z,39.60
2022-10-30T16:41:44.615Z,30.90
2022-10-30T16:44:48.080Z,27.30
2022-10-30T16:48:00.999Z,27.20
2022-10-30T16:51:15.992Z,27.10
2022-10-30T16:54:25.264Z,28.50
2022-10-30T16:57:35.527Z,26.40
2022-10-30T17:00:41.636Z,27.80
2022-10-30T17:03:45.449Z,30.20
2022-10-30T17:06:50.358Z,25.30
2022-10-30T17:09:56.877Z,25.50
2022-10-30T17:13:33.020Z,23.00
2022-10-30T17:16:39.807Z,22.90
2022-10-30T17:19:47.557Z,24.20
2022-10-30T17:23:05.209Z,22.10
2022-10-30T17:26:09.749Z,20.50
2022-10-30T17:29:37.606Z,23.80
2022-10-30T17:32:45.246Z,19.50
2022-10-30T17:35:48.351Z,19.40
2022-10-30T17:38:51.263Z,25.10
2022-10-30T17:41:57.325Z,19.60
2022-10-30T17:45:00.198Z,22.20
2022-10-30T17:48:03.324Z,23.80
2022-10-30T17:51:06.262Z,27.90
2022-10-30T17:54:13.520Z,24.20
2022-10-30T17:57:16.851Z,27.30
2022-10-30T18:00:19.879Z,27.20
2022-10-30T18:03:22.867Z,28.40
2022-10-30T18:06:27.491Z,30.10
2022-10-30T18:09:30.393Z,30.80
2022-10-30T18:12:33.256Z,28.10
2022-10-30T18:15:39.352Z,32.80
2022-10-30T18:18:44.443Z,31.50
2022-10-30T18:21:48.547Z,33.70
2022-10-30T18:24:51.432Z,28.90
2022-10-30T18:27:54.453Z,28.30
2022-10-30T18:30:58.609Z,27.80
2022-10-30T18:34:02.167Z,33.00
2022-10-30T18:37:05.200Z,40.20
2022-10-30T18:40:08.783Z,34.70
2022-10-30T18:43:12.136Z,32.50
2022-10-30T18:46:16.730Z,31.80
2022-10-30T18:49:24.408Z,32.40
2022-10-30T18:52:27.306Z,37.20
2022-10-30T18:55:36.613Z,36.50
2022-10-30T18:58:39.695Z,31.10
2022-10-30T19:01:42.793Z,34.60
2022-10-30T19:04:45.857Z,33.80
2022-10-30T19:07:48.864Z,38.10
2022-10-30T19:10:57.091Z,35.90
2022-10-30T19:14:00.683Z,38.50
2022-10-30T19:17:03.554Z,34.90
2022-10-30T19:20:06.749Z,32.30
2022-10-30T19:23:15.100Z,31.10
2022-10-30T19:26:18.022Z,36.60
2022-10-30T19:29:20.915Z,39.50
2022-10-30T19:32:23.763Z,48.60
2022-10-30T19:35:28.250Z,53.20
2022-10-30T19:38:32.643Z,52.00
2022-10-30T19:41:36.258Z,48.40
2022-10-30T19:44:39.119Z,46.60
2022-10-30T19:47:42.795Z,43.50
2022-10-30T19:50:46.767Z,40.50
2022-10-30T19:53:52.564Z,35.70
2022-10-30T19:56:55.411Z,36.00
2022-10-30T20:00:12.967Z,32.80
2022-10-30T20:03:18.202Z,34.80
2022-10-30T20:06:21.477Z,38.40
2022-10-30T20:09:24.390Z,34.90
2022-10-30T20:12:27.242Z,34.90
2022-10-30T20:15:30.221Z,36.20
2022-10-30T20:18:35.736Z,26.80
2022-10-30T20:21:38.838Z,31.30
2022-10-30T20:24:42.283Z,34.30
2022-10-30T20:27:46.056Z,34.50
2022-10-30T20:30:50.897Z,36.30
2022-10-30T20:33:53.870Z,33.50
2022-10-30T20:36:56.762Z,34.40
2022-10-30T20:39:59.656Z,33.70
2022-10-30T20:43:03.369Z,31.70
2022-10-30T20:46:09.361Z,40.40
2022-10-30T20:49:17.701Z,37.80
2022-10-30T20:52:21.676Z,38.20
2022-10-30T20:55:24.620Z,38.30
2022-10-30T20:58:27.996Z,36.70
2022-10-30T21:01:31.035Z,34.10
2022-10-30T21:04:33.971Z,43.30
2022-10-30T21:07:37.246Z,40.00
2022-10-30T21:10:42.333Z,37.70
2022-10-30T21:13:45.293Z,37.30
2022-10-30T21:16:48.166Z,39.40
2022-10-30T21:19:51.013Z,37.90
2022-10-30T21:22:53.846Z,46.80
2022-10-30T21:26:01.172Z,41.60
2022-10-30T21:29:05.315Z,42.00
2022-10-30T21:32:08.236Z,38.20
2022-10-30T21:35:11.068Z,38.40
2022-10-30T21:38:13.940Z,43.30
2022-10-30T21:41:19.715Z,35.80
2022-10-30T21:44:22.638Z,42.70
2022-10-30T21:47:25.633Z,39.50
2022-10-30T21:50:28.436Z,37.50
2022-10-30T21:53:31.289Z,37.80
2022-10-30T21:56:36.056Z,32.40
2022-10-30T21:59:39.126Z,38.50
2022-10-30T22:02:42.021Z,37.40
2022-10-30T22:05:44.834Z,37.50
2022-10-30T22:08:49.656Z,39.40
2022-10-30T22:11:52.544Z,34.70
2022-10-30T22:14:55.369Z,37.80
2022-10-30T22:17:58.613Z,35.80
2022-10-30T22:21:07.988Z,35.90
2022-10-30T22:24:13.023Z,38.30
2022-10-30T22:27:16.022Z,38.80
2022-10-30T22:30:18.871Z,38.20
2022-10-30T22:33:21.746Z,42.60
2022-10-30T22:36:26.882Z,35.50
2022-10-30T22:39:29.764Z,37.50
2022-10-30T22:42:35.354Z,38.60
2022-10-30T22:45:38.266Z,44.00
2022-10-30T22:48:41.833Z,38.20
2022-10-30T22:51:44.740Z,42.50
2022-10-30T22:54:47.735Z,38.40
2022-10-30T22:57:54.454Z,35.40
2022-10-30T23:01:17.694Z,36.50
2022-10-30T23:04:20.587Z,33.50
2022-10-30T23:07:23.481Z,38.40
2022-10-30T23:10:26.341Z,32.80
2022-10-30T23:13:29.562Z,33.70
2022-10-30T23:16:32.479Z,33.30
2022-10-30T23:19:35.384Z,33.70
2022-10-30T23:22:38.253Z,38.40
2022-10-30T23:25:41.267Z,31.30
2022-10-30T23:28:45.031Z,32.40
2022-10-30T23:31:47.841Z,33.30
2022-10-30T23:34:50.684Z,30.70
2022-10-30T23:37:53.650Z,34.70
2022-10-30T23:40:56.506Z,31.00
2022-10-30T23:44:01.663Z,36.00
2022-10-30T23:47:04.541Z,28.70
2022-10-30T23:50:07.614Z,33.90
2022-10-30T23:53:10.498Z,34.10
2022-10-30T23:56:14.087Z,40.00
2022-10-30T23:59:16.945Z,29.20
